Bookmark and Share
Track history (hours):
 

Camellia

Last reported at 2014-Apr-24 03:27 UTC. Time now 2014-Apr-24 11:35 UTC.
Position N 37°08' E 002°58'.

Length 222 m; draft 8.3 m.

Type: Ship (hazmat cat C). MMSI: 477791900.

NotesDate/timePositionNaut miles runAvg speedWind from/ knotsBaromVisibWave heightAir tempDewpointWater temp
2014-Apr-24 03:27N 37°08' E 002°58'1617.5
2014-Apr-24 02:33N 37°12' E 003°17'1818.1
2014-Apr-24 01:33N 37°16' E 003°39'1818.2
2014-Apr-24 00:33N 37°20' E 004°01'1818.1
2014-Apr-23 23:33N 37°20' E 004°24'2319.3
2014-Apr-23 22:21N 37°20' E 004°53'26617.8
2014-Apr-23 07:23N 37°36' E 010°27'2318.2
2014-Apr-23 06:07N 37°31' E 010°56'1118.3
2014-Apr-23 05:31N 37°27' E 011°09'1718.0
2014-Apr-23 04:34N 37°18' E 011°27'2318.5
2014-Apr-23 03:20N 37°07' E 011°52'2218.7
2014-Apr-23 02:09N 36°54' E 012°15'1119.1
2014-Apr-23 01:33N 36°48' E 012°27'5818.5
2014-Apr-22 22:25N 36°15' E 013°26'60 8.7
2014-Apr-22 15:33N 35°49' E 014°33'0 0.0
2014-Apr-22 14:33N 35°49' E 014°33'0 0.0
2014-Apr-22 13:33N 35°49' E 014°33'0 0.0
2014-Apr-22 07:30N 35°49' E 014°33'0 0.0
2014-Apr-22 06:33N 35°49' E 014°33'0 0.0
2014-Apr-22 05:33N 35°49' E 014°33'0 0.0
2014-Apr-22 04:33N 35°49' E 014°33'0 0.0
2014-Apr-22 03:30N 35°49' E 014°33'0 0.0
2014-Apr-22 02:33N 35°49' E 014°33'0 0.0
2014-Apr-22 01:24N 35°49' E 014°33'0 0.0
2014-Apr-22 00:27N 35°49' E 014°33'0 0.3
2014-Apr-21 23:33N 35°49' E 014°32'4 3.7
2014-Apr-21 22:33N 35°48' E 014°36'4 4.0
2014-Apr-21 21:33N 35°48' E 014°41'2 2.4
2014-Apr-21 20:33N 35°49' E 014°44'1 1.0
2014-Apr-21 19:33N 35°48' E 014°43'1 1.3
2014-Apr-21 18:33N 35°48' E 014°45'9 8.7
2014-Apr-21 17:33N 35°49' E 014°56'1111.0
2014-Apr-21 16:31N 35°49' E 015°10'1111.5
2014-Apr-21 15:33N 35°49' E 015°23'1111.1
2014-Apr-21 14:33N 35°49' E 015°37'20913.8
2014-Apr-20 23:26N 35°56' E 019°55'1415.3
2014-Apr-20 22:33N 35°57' E 020°12'1715.3
2014-Apr-20 21:25N 35°57' E 020°33'16814.0
2014-Apr-20 09:28N 36°42' E 023°54'3314.5
2014-Apr-20 07:09N 37°11' E 024°13'914.6
2014-Apr-20 06:33N 37°20' E 024°15'13711.4
2014-Apr-19 18:30N 39°37' E 024°07'27 1.4
2014-Apr-18 22:31N 39°46' E 023°34'1818.6
2014-Apr-18 21:33N 39°45' E 023°57'3718.4
2014-Apr-18 19:33N 39°43' E 024°45'4016.6
2014-Apr-18 17:10N 39°48' E 025°36'1016.2
2014-Apr-18 16:33N 39°56' E 025°44'6013.4
2014-Apr-18 12:05N 40°28' E 026°50'  

Dump ship's entire track history

sailing weather and tide predictions

Camellia — VRCP9 — position and weather